Terminal Aerodrome Forecast
Issued by NWS Wilmington, OH

Current Version | Previous Version | Text Only | Print | Product List | Glossary Off
Versions: 1 2 3 4 5 6 7 8 9 10 11 12 13 14 15 16 17 18 19 20 21 22

541
FTUS41 KILN 010201 AAD
TAFCMH
TAF AMD
KCMH 010201Z 0102/0124 27015KT P6SM BKN035
     FM010400 24008KT P6SM OVC025
     FM011300 25012G20KT P6SM BKN025=

USA.gov is the U.S. government's official web portal to all federal, state and local government web resources and services.